首页
METAR-TAF:

METAR-TAF

机场 :

維也納, 奥地利

維也納國際機場

纬度: 48-07N, 经度: 016-34E, 海拔: 183米

当前天气观测

该预报发布于25分钟前的17:50 UTC
风速8节,风向西
温度 21°C
湿度 46%
气压 1015 hPa
能见度10公里或以上
1500米以下无云,无积雨云

METAR: LOWW 241750Z 27008KT CAVOK 21/09 Q1015 BECMG 20005KT

时间: 20:15 (18:15 UTC)

预报

该预报发布于1小时和0分钟前的17:15 UTC
预报有效从24日的 18点(UTC)到 25日的 24点(UTC)
风速7节,风向西
能见度10公里或以上
1500米以下无云,无积雨云
成为
从 24日的 18点(UTC)到 24日的 21点(UTC)
风速6节,风向西南
成为
从 25日的 10点(UTC)到 25日的 12点(UTC)
风速10节,风向西
短暂存在
从 25日的 12点(UTC)到 25日的 15点(UTC)
风速15节,风向西转西北

TAF: LOWW 241715Z 2418/2524 28007KT CAVOK TX26/2514Z TN11/2503Z BECMG 2418/2421 22006KT BECMG 2510/2512 28010KT TEMPO 2512/2515 29015KT

超过4000个机场的气象观测和天气预报(METAR&TAF报告)。

可查询的气象台以黄色和红色小点在地图上表示。

将鼠标移到小点上方,可查看气象台名称。

然后点击查看天气观测和预报。

如需切换地图:点击带黑十字的绿色按钮放大地图;点击带横线的绿色按钮缩小地图;或者点击绿色箭头查看邻近地区的地图。


METAR-TAF: